Latest Coastal Weather Observations for Proserpine

IDQ60701

Issued at 5:51 pm EST Sunday 5 July 2015 (issued every 10 minutes, with the page automatically refreshed every 10 minutes)

About coastal observations | Map of coastal stations | Coastal observations for QLD | Marine services | Other Formats
Station Details ID: 033247 Name: PROSERPINE AIRPORT Lat: -20.49 Lon: 148.56 Height: 19.7 m
Data from the previous 72 hours. | See also: Recent months at Proserpine
Date/Time
EST
Temp

°C
Wind Pressure Rain
since 9am
mm
Weather Cloud Vis
km
Sea
Height
m
Swell
Dir
 
Speed
knots
Gust
knots
hPa Trend Height
m
Period
s
Dir
05/05:30pm 19.6 ESE 8 12 1018.3 - 0.0 - Partly cloudy 10 - - - -
05/05:00pm 20.6 E 8 13 1018.1 - 0.0 - Partly cloudy 10 - - - -
05/04:30pm 21.0 ESE 10 15 1018.0 - 0.0 - Partly cloudy 10 - - - -
05/04:00pm 22.2 E 12 17 1017.9 - 0.0 - - 10 - - - -
05/03:30pm 22.3 ESE 12 19 1018.0 - 0.0 - Partly cloudy 10 - - - -
05/03:00pm 22.0 ESE 13 20 1018.0 - 0.0 - Partly cloudy 10 - - - -
05/02:30pm 22.1 ESE 13 17 1018.2 - 0.0 - Partly cloudy 10 - - - -
05/02:00pm 22.7 ESE 11 17 1018.2 - 0.0 - Partly cloudy 10 - - - -
05/01:30pm 22.1 E 11 15 1018.5 - 0.0 - Partly cloudy 10 - - - -
05/01:00pm 22.1 ESE 15 20 1018.9 - 0.0 - Partly cloudy 10 - - - -
05/12:30pm 23.1 ESE 14 20 1019.0 - 0.0 - - 10 - - - -
05/12:00pm 24.1 ESE 12 17 1019.5 - 0.0 - - 10 - - - -
05/11:30am 23.1 ESE 12 17 1020.0 - 0.0 - - 10 - - - -
05/11:00am 23.6 ESE 13 17 1020.2 - 0.0 - Partly cloudy 10 - - - -
05/10:30am 22.1 ESE 13 17 1020.5 - 0.0 - Partly cloudy 10 - - - -
05/10:00am 22.2 ESE 12 16 1020.5 - 0.0 - - 10 - - - -
05/09:30am 21.9 SE 11 16 1020.5 - 0.0 - Partly cloudy 10 - - - -
05/09:00am 20.0 SSE 7 9 1020.4 - 0.0 - - 10 - - - -
05/08:30am 16.9 CALM 0 3 1020.3 - 0.0 - Partly cloudy 10 - - - -
05/08:00am 15.6 SSW 6 8 1020.1 - 0.0 - Partly cloudy 10 - - - -
05/07:30am 14.1 SSW 5 6 1019.9 - 0.0 - - 10 - - - -
05/07:00am 12.8 SSW 5 6 1019.5 - 0.0 - Partly cloudy 10 - - - -
05/06:30am 13.1 SSW 7 8 1019.4 - 0.0 - Partly cloudy 10 - - - -
05/05:30am 12.3 CALM 0 0 1018.4 - 0.0 - - 10 - - - -
05/05:00am 12.4 SSW 4 5 1018.5 - 0.0 - - 10 - - - -
05/04:30am 13.1 CALM 0 0 1018.5 - 0.0 - Partly cloudy 10 - - - -
05/04:00am 13.2 SSW 6 7 1018.5 - 0.0 - Partly cloudy 10 - - - -
05/03:30am 13.6 SSW 3 4 1018.7 - 0.0 - Partly cloudy 10 - - - -
05/03:00am 13.6 SW 5 6 1018.7 - 0.0 - Mostly cloudy 10 - - - -
05/02:30am 12.8 SW 4 5 1018.8 - 0.0 - Partly cloudy 10 - - - -
05/02:00am 11.2 SW 5 5 1019.1 - 0.0 - Partly cloudy 10 - - - -
05/01:30am 11.3 CALM 0 0 1019.4 - 0.0 - - 10 - - - -
05/01:00am 11.7 SSW 4 6 1019.4 - 0.0 - - 10 - - - -
05/12:30am 11.7 SW 3 4 1019.6 - 0.0 - - 10 - - - -
 
Date/Time
EST
Temp

°C
Wind Pressure Rain
since 9am
mm
Weather Cloud Vis
km
Sea
Height
m
Swell
Dir
 
Speed
knots
Gust
knots
hPa Trend Height
m
Period
s
Dir
04/11:30pm 11.8 CALM 0 0 1020.1 - 0.0 - Partly cloudy 10 - - - -
04/11:00pm 11.6 CALM 0 0 1020.2 - 0.0 - - 10 - - - -
04/10:30pm 12.2 CALM 0 0 1020.2 - 0.0 - - 10 - - - -
04/10:00pm 12.1 CALM 0 0 1020.2 - 0.0 - - 10 - - - -
04/09:30pm 12.8 CALM 0 0 1020.3 - 0.0 - - 10 - - - -
04/09:00pm 13.4 S 1 4 1020.3 - 0.0 - - 10 - - - -
04/08:30pm 14.2 CALM 0 0 1020.1 - 0.0 - - 10 - - - -
04/08:00pm 14.4 WSW 4 5 1019.9 - 0.0 - - 10 - - - -
04/07:30pm 16.6 SE 4 5 1019.6 - 0.0 - - 10 - - - -
04/07:00pm 16.9 ESE 5 6 1019.4 - 0.0 - - 10 - - - -
04/06:30pm 17.2 SE 4 5 1019.1 - 0.0 - - 10 - - - -
04/06:00pm 18.4 ESE 5 8 1018.8 - 0.0 - - 10 - - - -
04/05:30pm 19.4 ESE 8 11 1018.4 - 0.0 - - 10 - - - -
04/05:00pm 20.2 ESE 10 13 1018.2 - 0.0 - - 10 - - - -
04/04:30pm 20.8 ESE 13 17 1018.0 - 0.0 - - 10 - - - -
04/04:00pm 21.7 ESE 12 17 1017.9 - 0.0 - - 10 - - - -
04/03:30pm 22.5 E 11 16 1017.9 - 0.0 - - 10 - - - -
04/03:00pm 22.4 ESE 13 17 1017.9 - 0.0 - Mostly clear 10 - - - -
04/02:30pm 23.1 ESE 13 16 1018.1 - 0.0 - - 10 - - - -
04/02:00pm 23.0 ESE 11 15 1018.2 - 0.0 - - 10 - - - -
04/01:30pm 22.6 SE 16 21 1018.3 - 0.0 - - 10 - - - -
04/01:00pm 22.7 ESE 15 19 1018.7 - 0.0 - - 10 - - - -
04/12:30pm 22.8 ESE 14 20 1019.3 - 0.0 - - 10 - - - -
04/12:00pm 22.0 SE 15 19 1019.8 - 0.0 - - 10 - - - -
04/11:30am 21.8 ESE 11 18 1020.4 - 0.0 - - 10 - - - -
04/11:00am 21.1 ESE 11 16 1020.5 - 0.0 - Partly cloudy 10 - - - -
04/10:30am 20.3 ESE 12 15 1020.6 - 0.0 - Partly cloudy 10 - - - -
04/10:00am 19.6 SSW 4 7 1020.5 - 0.0 - Partly cloudy 10 - - - -
04/09:30am 18.2 SE 5 7 1020.7 - 0.0 - Partly cloudy 10 - - - -
04/09:00am 16.2 CALM 0 0 1020.5 - 0.0 - Mostly clear 10 - - - -
04/08:30am 13.4 CALM 0 2 1020.3 - 0.0 - Partly cloudy 10 - - - -
04/08:00am 12.1 W 1 3 1019.9 - 0.0 - - 10 - - - -
04/07:30am 10.5 CALM 0 0 1019.5 - 0.0 - - 10 - - - -
04/07:00am 9.4 S 3 6 1019.3 - 0.0 - - 10 - - - -
04/06:30am 8.8 SW 6 8 1019.0 - 0.0 - - 10 - - - -
04/06:00am 8.2 SSW 4 5 1019.0 - 0.0 - - 10 - - - -
04/05:30am 8.2 SW 4 5 1019.0 - 0.0 - - 10 - - - -
04/05:00am 9.5 ENE 1 4 1019.1 - 0.0 - - 10 - - - -
04/04:30am 9.2 SSW 3 4 1019.0 - 0.0 - - 10 - - - -
04/04:00am 9.7 SW 4 5 1018.8 - 0.0 - - 10 - - - -
04/03:30am 10.4 SSW 7 9 1019.0 - 0.0 - - 10 - - - -
04/03:00am 10.9 S 8 9 1019.0 - 0.0 - - 10 - - - -
04/02:30am 10.1 SW 5 6 1019.7 - 0.0 - - 10 - - - -
04/02:00am 10.3 WSW 4 5 1020.0 - 0.0 - - 10 - - - -
04/01:30am 11.0 SW 5 6 1020.4 - 0.0 - - 10 - - - -
04/01:00am 10.7 SW 6 7 1020.7 - 0.0 - - 10 - - - -
04/12:30am 10.6 SW 6 7 1020.9 - 0.0 - - 10 - - - -
04/12:00am 10.6 SSW 6 7 1021.2 - 0.0 - - 10 - - - -
 
Date/Time
EST
Temp

°C
Wind Pressure Rain
since 9am
mm
Weather Cloud Vis
km
Sea
Height
m
Swell
Dir
 
Speed
knots
Gust
knots
hPa Trend Height
m
Period
s
Dir
03/11:30pm 10.8 SSW 6 6 1021.3 - 0.0 - - 10 - - - -
03/11:00pm 11.2 SSW 5 6 1021.3 - 0.0 - - 10 - - - -
03/10:30pm 12.0 SSW 6 7 1021.2 - 0.0 - - 10 - - - -
03/10:00pm 12.8 S 8 9 1021.2 - 0.0 - - 10 - - - -
03/09:30pm 11.9 S 6 7 1021.1 - 0.0 - - 10 - - - -
03/09:00pm 11.6 SSW 6 7 1020.8 - 0.0 - - 10 - - - -
03/08:30pm 11.9 CALM 0 3 1020.6 - 0.0 - Partly cloudy 10 - - - -
03/08:00pm 12.5 CALM 0 0 1020.3 - 0.0 - - 10 - - - -
03/07:30pm 13.5 CALM 0 1 1020.2 - 0.0 - - 10 - - - -
03/07:00pm 13.2 W 3 4 1019.9 - 0.0 - - 10 - - - -
03/06:30pm 14.7 CALM 0 3 1019.5 - 0.0 - - 10 - - - -
03/06:00pm 16.4 SSE 4 5 1019.1 - 0.0 - - 10 - - - -
03/05:30pm 17.2 E 7 9 1019.0 - 0.0 - - 10 - - - -
03/05:00pm 18.5 E 9 12 1018.5 - 0.0 - - 10 - - - -
03/04:30pm 19.3 E 9 12 1018.3 - 0.0 - - 10 - - - -
03/04:00pm 20.2 E 10 14 1018.1 - 0.0 - - 10 - - - -
03/03:30pm 20.6 ESE 9 13 1017.9 - 0.0 - - 10 - - - -
03/03:00pm 21.1 ESE 10 15 1018.0 - 0.0 - - 10 - - - -
03/02:30pm 21.2 ESE 9 14 1018.1 - 0.0 - - 10 - - - -
03/02:00pm 21.1 ESE 11 15 1018.1 - 0.0 - - 10 - - - -
03/01:30pm 20.9 ESE 11 15 1018.5 - 0.0 - - 10 - - - -
03/01:00pm 20.5 E 10 15 1018.8 - 0.0 - - 10 - - - -
03/12:30pm 20.1 E 11 17 1019.1 - 0.0 - - 10 - - - -
03/12:00pm 20.0 E 13 18 1019.4 - 0.0 - - 10 - - - -
03/11:30am 19.4 ESE 13 18 1019.8 - 0.0 - - 10 - - - -
03/11:00am 19.2 ESE 14 19 1020.2 - 0.0 - - 10 - - - -
03/10:30am 19.5 ESE 13 18 1020.3 - 0.0 - - 10 - - - -
03/10:00am 20.0 E 9 14 1020.3 - 0.0 - - 10 - - - -
03/09:30am 19.2 SE 8 14 1020.2 - 0.0 - - 10 - - - -
03/09:00am 17.5 SE 5 7 1020.2 - 0.0 - - 10 - - - -
03/08:30am 15.8 SE 4 6 1020.0 - 0.0 - - 10 - - - -
03/08:00am 14.0 CALM 0 0 1019.9 - 0.0 - - 10 - - - -
03/07:30am 10.7 WNW 5 6 1019.8 - 0.0 - - 10 - - - -
03/07:00am 9.1 CALM 0 0 1019.5 - 0.0 - - 10 - - - -
03/06:30am 9.7 CALM 0 0 1019.3 - 0.0 - - 10 - - - -
03/06:00am 9.9 CALM 0 0 1019.0 - 0.0 - - 10 - - - -
03/05:30am 10.7 CALM 0 0 1018.7 - 0.0 - - 10 - - - -
03/05:00am 10.9 CALM 0 0 1018.3 - 0.0 - - 10 - - - -
03/04:30am 11.6 CALM 0 0 1018.1 - 0.0 - - 10 - - - -
03/04:00am 11.4 CALM 0 0 1018.2 - 0.0 - - 10 - - - -
03/03:30am 11.8 W 3 4 1018.2 - 0.0 - - 10 - - - -
03/03:00am 12.6 SW 3 5 1018.4 - 0.0 - - 10 - - - -
03/02:30am 12.1 SW 4 6 1018.4 - 0.0 - - 10 - - - -
03/02:00am 12.5 SW 1 5 1018.7 - 0.0 - - 10 - - - -
03/01:43am 13.0 SSW 3 4 1018.9 - 0.0 - - 10 - - - -
03/01:30am 13.0 CALM 0 0 1019.0 - 0.0 - Partly cloudy 2 - - - -
03/01:23am 12.9 CALM 0 0 1019.1 - 0.0 - Partly cloudy 3 - - - -
03/01:00am 13.4 CALM 0 0 1019.2 - 0.0 - - 10 - - - -
03/12:30am 13.7 SSW 5 5 1019.4 - 0.0 - - 10 - - - -
03/12:00am 13.9 SW 3 4 1019.5 - 0.0 - Mostly clear 10 - - - -
 
Date/Time
EST
Temp

°C
Wind Pressure Rain
since 9am
mm
Weather Cloud Vis
km
Sea
Height
m
Swell
Dir
 
Speed
knots
Gust
knots
hPa Trend Height
m
Period
s
Dir
02/11:30pm 14.2 SSW 3 5 1019.7 - 0.0 - Partly cloudy 10 - - - -
02/11:00pm 14.8 SSW 6 7 1019.9 - 0.0 - - 10 - - - -
02/10:30pm 15.0 SSW 6 7 1020.0 - 0.0 - - 10 - - - -
02/10:00pm 15.3 SSW 5 6 1020.1 - 0.0 - - 10 - - - -
02/09:30pm 15.7 SW 6 7 1020.1 - 0.0 - - 10 - - - -
02/09:00pm 16.1 SSW 6 6 1020.2 - 0.0 - - 10 - - - -
02/08:30pm 16.6 S 5 6 1020.3 - 0.0 - - 10 - - - -
02/08:00pm 17.6 S 6 8 1020.2 - 0.0 - - 10 - - - -
02/07:30pm 17.9 SSE 6 7 1019.9 - 0.0 - - 10 - - - -
02/07:00pm 17.4 SSE 5 6 1019.5 - 0.0 - - 10 - - - -
02/06:30pm 18.0 SE 3 4 1019.2 - 0.0 - - 10 - - - -
02/06:00pm 18.4 SE 5 6 1018.9 - 0.0 - - 10 - - - -

Other Formats:

Comma delimited format used in spreadsheet applications
http://www.bom.gov.au/fwo/IDQ60701/IDQ60701.94365.axf

JavaScript Object Notation format (JSON) in row-major order
http://www.bom.gov.au/fwo/IDQ60701/IDQ60701.94365.json